Hatsu Ethic — VQFS4 — position and weather

sailwx.info

Track history (hours):
 
Tides and Currents Weather Stations Pressure Air Temp Water Temp Dewpoint Dewpoint Depression Visibility Wind Speed Wind Dir Waves Ship Positions

Hatsu Ethic

Last reported at 2015-Feb-27 11:31 UTC. Time now 2015-Mar-05 10:26 UTC.
Position N 02°08' E 102°04'.

Type: Ship (hazmat cat D). MMSI: 235603000.

Date/timePositionNaut miles runAvg speedWind from/ knotsBaromVisibWave heightAir tempDewpointWater temp
2015-Feb-27 11:31N 02°08' E 102°04'2320.8
2015-Feb-27 10:24N 01°54' E 102°23'1820.5
2015-Feb-27 09:31N 01°46' E 102°39'75 2.3
2015-Feb-26 01:16N 01°08' E 103°44'1115.0
2015-Feb-26 00:33N 01°13' E 103°54'1615.8
2015-Feb-25 23:32N 01°17' E 104°09'  
2015-Feb-22 20:31N 22°15' E 114°30'2411.7
2015-Feb-22 18:30N 22°34' E 114°16'0 0.2
2015-Feb-22 17:05N 22°34' E 114°16'0 0.0
2015-Feb-22 16:11N 22°34' E 114°16'0 0.0
2015-Feb-22 15:29N 22°34' E 114°16'0 0.0
2015-Feb-22 14:23N 22°34' E 114°16'0 0.0
2015-Feb-22 13:30N 22°34' E 114°16'0 0.0
2015-Feb-22 12:29N 22°34' E 114°16'0 0.0
2015-Feb-22 11:30N 22°34' E 114°16'0 0.0
2015-Feb-22 10:30N 22°34' E 114°16'21 8.5
2015-Feb-22 08:03N 22°18' E 114°30'713.9
2015-Feb-22 07:33N 22°12' E 114°27'1312.9
2015-Feb-22 06:32N 22°08' E 114°13'1212.8
2015-Feb-22 05:33N 22°18' E 114°06'1110.5
2015-Feb-22 04:30N 22°22' E 113°55'5 5.4
2015-Feb-22 03:33N 22°27' E 113°54'0 0.1
2015-Feb-22 02:09N 22°27' E 113°54'0 0.0
2015-Feb-22 01:29N 22°27' E 113°54'0 0.0
2015-Feb-22 00:33N 22°27' E 113°54'0 0.0
2015-Feb-21 23:30N 22°27' E 113°54'0 0.0
2015-Feb-21 22:33N 22°27' E 113°54'0 0.0
2015-Feb-21 21:27N 22°27' E 113°54'0 0.0
2015-Feb-21 20:27N 22°27' E 113°54'0 0.0
2015-Feb-21 19:33N 22°27' E 113°54'0 0.0
2015-Feb-21 18:21N 22°27' E 113°54'0 0.0
2015-Feb-21 17:33N 22°27' E 113°54'0 0.0
2015-Feb-21 16:33N 22°27' E 113°54'0 0.0
2015-Feb-21 15:33N 22°27' E 113°54'0 0.0
2015-Feb-21 14:33N 22°27' E 113°54'0 0.0
2015-Feb-21 13:33N 22°27' E 113°54'0 0.0
2015-Feb-21 12:27N 22°27' E 113°54'0 0.0
2015-Feb-21 11:33N 22°27' E 113°54'0 0.0
2015-Feb-21 10:33N 22°27' E 113°54'0 0.0
2015-Feb-21 09:33N 22°27' E 113°54'0 0.0
2015-Feb-21 08:33N 22°27' E 113°54'0 0.0
2015-Feb-21 07:33N 22°27' E 113°54'0 0.0
2015-Feb-21 06:33N 22°27' E 113°54'0 0.0
2015-Feb-21 05:33N 22°27' E 113°54'0 0.0
2015-Feb-21 04:33N 22°27' E 113°54'0 0.0
2015-Feb-21 03:33N 22°27' E 113°54'3 3.4
2015-Feb-21 02:33N 22°24' E 113°54'8 6.7
2015-Feb-21 01:20N 22°21' E 114°02'1010.1
2015-Feb-21 00:21N 22°14' E 114°09'8 9.5
2015-Feb-20 23:33N 22°09' E 114°15'9 9.2
2015-Feb-20 22:33N 22°08' E 114°25'1110.7
2015-Feb-20 21:32N 22°08' E 114°37'  
2015-Feb-18 09:28N 29°15' E 122°29'1819.8
2015-Feb-18 08:33N 29°33' E 122°29'1413.7
2015-Feb-18 07:33N 29°44' E 122°19'1212.3
2015-Feb-18 06:33N 29°54' E 122°10'7 6.5
2015-Feb-18 05:32N 29°53' E 122°03'0 0.0
2015-Feb-18 04:26N 29°53' E 122°03'0 0.0
2015-Feb-18 03:20N 29°53' E 122°03'0 0.1
2015-Feb-18 02:26N 29°53' E 122°03'0 0.0
2015-Feb-18 01:26N 29°53' E 122°03'0 0.0
2015-Feb-18 00:26N 29°53' E 122°03'0 0.0
2015-Feb-17 23:32N 29°53' E 122°03'0 0.0
2015-Feb-17 22:32N 29°53' E 122°03'0 0.0
2015-Feb-17 21:23N 29°53' E 122°03'0 0.1
2015-Feb-17 20:32N 29°53' E 122°03'0 0.0
2015-Feb-17 19:26N 29°53' E 122°03'0 0.0
2015-Feb-17 17:32N 29°53' E 122°03'0 0.0
2015-Feb-17 16:29N 29°53' E 122°03'0 0.1
2015-Feb-17 15:32N 29°53' E 122°03'0 0.0
2015-Feb-17 14:23N 29°53' E 122°03'0 0.0
2015-Feb-17 13:17N 29°53' E 122°03'0 0.1
2015-Feb-17 12:23N 29°53' E 122°03'1 1.4
2015-Feb-17 11:34N 29°54' E 122°03'  
Track history (hours):
 
Tides and Currents Weather Stations Pressure Air Temp Water Temp Dewpoint Dewpoint Depression Visibility Wind Speed Wind Dir Waves Ship Positions

Hatsu Ethic

Last reported at 2015-Feb-27 11:31 UTC. Time now 2015-Mar-05 10:26 UTC.
Position N 02°08' E 102°04'.

Type: Ship (hazmat cat D). MMSI: 235603000.

Date/timePositionNaut miles runAvg speedWind from/ knotsBaromVisibWave heightAir tempDewpointWater temp
2015-Feb-27 11:31N 02°08' E 102°04'2320.8
2015-Feb-27 10:24N 01°54' E 102°23'1820.5
2015-Feb-27 09:31N 01°46' E 102°39'75 2.3
2015-Feb-26 01:16N 01°08' E 103°44'1115.0
2015-Feb-26 00:33N 01°13' E 103°54'1615.8
2015-Feb-25 23:32N 01°17' E 104°09'  
2015-Feb-22 20:31N 22°15' E 114°30'2411.7
2015-Feb-22 18:30N 22°34' E 114°16'0 0.2
2015-Feb-22 17:05N 22°34' E 114°16'0 0.0
2015-Feb-22 16:11N 22°34' E 114°16'0 0.0
2015-Feb-22 15:29N 22°34' E 114°16'0 0.0
2015-Feb-22 14:23N 22°34' E 114°16'0 0.0
2015-Feb-22 13:30N 22°34' E 114°16'0 0.0
2015-Feb-22 12:29N 22°34' E 114°16'0 0.0
2015-Feb-22 11:30N 22°34' E 114°16'0 0.0
2015-Feb-22 10:30N 22°34' E 114°16'21 8.5
2015-Feb-22 08:03N 22°18' E 114°30'713.9
2015-Feb-22 07:33N 22°12' E 114°27'1312.9
2015-Feb-22 06:32N 22°08' E 114°13'1212.8
2015-Feb-22 05:33N 22°18' E 114°06'1110.5
2015-Feb-22 04:30N 22°22' E 113°55'5 5.4
2015-Feb-22 03:33N 22°27' E 113°54'0 0.1
2015-Feb-22 02:09N 22°27' E 113°54'0 0.0
2015-Feb-22 01:29N 22°27' E 113°54'0 0.0
2015-Feb-22 00:33N 22°27' E 113°54'0 0.0
2015-Feb-21 23:30N 22°27' E 113°54'0 0.0
2015-Feb-21 22:33N 22°27' E 113°54'0 0.0
2015-Feb-21 21:27N 22°27' E 113°54'0 0.0
2015-Feb-21 20:27N 22°27' E 113°54'0 0.0
2015-Feb-21 19:33N 22°27' E 113°54'0 0.0
2015-Feb-21 18:21N 22°27' E 113°54'0 0.0
2015-Feb-21 17:33N 22°27' E 113°54'0 0.0
2015-Feb-21 16:33N 22°27' E 113°54'0 0.0
2015-Feb-21 15:33N 22°27' E 113°54'0 0.0
2015-Feb-21 14:33N 22°27' E 113°54'0 0.0
2015-Feb-21 13:33N 22°27' E 113°54'0 0.0
2015-Feb-21 12:27N 22°27' E 113°54'0 0.0
2015-Feb-21 11:33N 22°27' E 113°54'0 0.0
2015-Feb-21 10:33N 22°27' E 113°54'0 0.0
2015-Feb-21 09:33N 22°27' E 113°54'0 0.0
2015-Feb-21 08:33N 22°27' E 113°54'0 0.0
2015-Feb-21 07:33N 22°27' E 113°54'0 0.0
2015-Feb-21 06:33N 22°27' E 113°54'0 0.0
2015-Feb-21 05:33N 22°27' E 113°54'0 0.0
2015-Feb-21 04:33N 22°27' E 113°54'0 0.0
2015-Feb-21 03:33N 22°27' E 113°54'3 3.4
2015-Feb-21 02:33N 22°24' E 113°54'8 6.7
2015-Feb-21 01:20N 22°21' E 114°02'1010.1
2015-Feb-21 00:21N 22°14' E 114°09'8 9.5
2015-Feb-20 23:33N 22°09' E 114°15'9 9.2
2015-Feb-20 22:33N 22°08' E 114°25'1110.7
2015-Feb-20 21:32N 22°08' E 114°37'  
2015-Feb-18 09:28N 29°15' E 122°29'1819.8
2015-Feb-18 08:33N 29°33' E 122°29'1413.7
2015-Feb-18 07:33N 29°44' E 122°19'1212.3
2015-Feb-18 06:33N 29°54' E 122°10'7 6.5
2015-Feb-18 05:32N 29°53' E 122°03'0 0.0
2015-Feb-18 04:26N 29°53' E 122°03'0 0.0
2015-Feb-18 03:20N 29°53' E 122°03'0 0.1
2015-Feb-18 02:26N 29°53' E 122°03'0 0.0
2015-Feb-18 01:26N 29°53' E 122°03'0 0.0
2015-Feb-18 00:26N 29°53' E 122°03'0 0.0
2015-Feb-17 23:32N 29°53' E 122°03'0 0.0
2015-Feb-17 22:32N 29°53' E 122°03'0 0.0
2015-Feb-17 21:23N 29°53' E 122°03'0 0.1
2015-Feb-17 20:32N 29°53' E 122°03'0 0.0
2015-Feb-17 19:26N 29°53' E 122°03'0 0.0
2015-Feb-17 17:32N 29°53' E 122°03'0 0.0
2015-Feb-17 16:29N 29°53' E 122°03'0 0.1
2015-Feb-17 15:32N 29°53' E 122°03'0 0.0
2015-Feb-17 14:23N 29°53' E 122°03'0 0.0
2015-Feb-17 13:17N 29°53' E 122°03'0 0.1
2015-Feb-17 12:23N 29°53' E 122°03'1 1.4
2015-Feb-17 11:34N 29°54' E 122°03'  

Dump ship's entire track history